createdAt,value
2022-10-02T00:01:15.903Z,59.70
2022-10-02T00:03:43.287Z,60.30
2022-10-02T00:06:12.907Z,59.60
2022-10-02T00:08:41.385Z,59.70
2022-10-02T00:11:13.103Z,59.70
2022-10-02T00:13:42.922Z,59.70
2022-10-02T00:16:15.198Z,59.70
2022-10-02T00:18:42.235Z,59.70
2022-10-02T00:21:13.083Z,59.70
2022-10-02T00:23:41.503Z,59.70
2022-10-02T00:26:12.926Z,59.70
2022-10-02T00:28:58.277Z,59.70
2022-10-02T00:31:34.728Z,59.70
2022-10-02T00:34:01.247Z,59.70
2022-10-02T00:36:30.500Z,59.70
2022-10-02T00:39:11.544Z,60.40
2022-10-02T00:41:56.494Z,59.70
2022-10-02T00:44:22.963Z,59.70
2022-10-02T00:46:58.705Z,59.80
2022-10-02T00:49:45.479Z,59.70
2022-10-02T00:52:18.215Z,59.70
2022-10-02T00:55:03.871Z,59.70
2022-10-02T00:57:30.328Z,59.70
2022-10-02T01:00:08.564Z,59.80
2022-10-02T01:02:50.640Z,59.70
2022-10-02T01:05:17.611Z,59.70
2022-10-02T01:07:46.577Z,59.80
2022-10-02T01:10:13.512Z,59.80
2022-10-02T01:12:40.101Z,59.70
2022-10-02T01:15:13.940Z,59.70
2022-10-02T01:17:40.997Z,59.70
2022-10-02T01:20:12.411Z,59.70
2022-10-02T01:22:43.092Z,59.70
2022-10-02T01:25:09.598Z,59.80
2022-10-02T01:27:39.171Z,59.70
2022-10-02T01:30:07.391Z,59.70
2022-10-02T01:32:35.176Z,59.70
2022-10-02T01:35:01.760Z,59.80
2022-10-02T01:37:30.196Z,59.70
2022-10-02T01:40:03.935Z,59.80
2022-10-02T01:42:30.705Z,59.70
2022-10-02T01:44:57.677Z,59.80
2022-10-02T01:47:29.035Z,59.80
2022-10-02T01:50:07.143Z,59.70
2022-10-02T01:52:49.750Z,59.70
2022-10-02T01:55:27.094Z,59.80
2022-10-02T01:58:02.601Z,59.70
2022-10-02T02:00:37.318Z,59.80
2022-10-02T02:03:18.564Z,59.70
2022-10-02T02:05:50.971Z,59.80
2022-10-02T02:08:23.591Z,59.80
2022-10-02T02:11:11.483Z,59.80
2022-10-02T02:13:47.115Z,59.80
2022-10-02T02:16:20.997Z,59.80
2022-10-02T02:19:10.837Z,59.80
2022-10-02T02:21:42.328Z,59.80
2022-10-02T02:24:11.342Z,59.80
2022-10-02T02:26:39.110Z,59.80
2022-10-02T02:29:07.105Z,59.80
2022-10-02T02:31:38.048Z,59.80
2022-10-02T02:34:07.547Z,59.80
2022-10-02T02:36:36.862Z,59.80
2022-10-02T02:39:06.744Z,59.80
2022-10-02T02:41:37.659Z,59.80
2022-10-02T02:44:07.712Z,59.80
2022-10-02T02:46:59.707Z,59.80
2022-10-02T02:49:27.431Z,59.80
2022-10-02T02:51:56.095Z,59.80
2022-10-02T02:54:25.768Z,59.80
2022-10-02T02:56:53.013Z,59.80
2022-10-02T02:59:21.043Z,59.80
2022-10-02T03:01:47.601Z,59.80
2022-10-02T03:04:14.614Z,59.80
2022-10-02T03:06:42.883Z,59.80
2022-10-02T03:09:12.366Z,59.80
2022-10-02T03:11:59.043Z,59.80
2022-10-02T03:14:28.597Z,59.80
2022-10-02T03:17:00.363Z,59.80
2022-10-02T03:19:45.199Z,59.80
2022-10-02T03:22:31.340Z,59.80
2022-10-02T03:25:16.611Z,59.80
2022-10-02T03:27:50.928Z,59.80
2022-10-02T03:30:21.855Z,59.80
2022-10-02T03:32:51.283Z,59.80
2022-10-02T03:35:18.458Z,59.80
2022-10-02T03:37:47.579Z,59.80
2022-10-02T03:40:14.125Z,59.80
2022-10-02T03:42:40.701Z,59.90
2022-10-02T03:45:07.440Z,59.80
2022-10-02T03:47:34.130Z,59.80
2022-10-02T03:50:00.618Z,59.80
2022-10-02T03:52:31.238Z,59.80
2022-10-02T03:55:01.617Z,59.80
2022-10-02T03:57:29.767Z,59.80
2022-10-02T04:00:02.300Z,59.80
2022-10-02T04:02:28.773Z,59.80
2022-10-02T04:04:59.540Z,59.80
2022-10-02T04:07:30.619Z,59.80
2022-10-02T04:09:59.867Z,59.80
2022-10-02T04:12:28.766Z,59.80
2022-10-02T04:15:01.594Z,59.80
2022-10-02T04:17:38.824Z,59.80
2022-10-02T04:20:10.294Z,59.80
2022-10-02T04:22:39.705Z,59.80
2022-10-02T04:25:20.413Z,59.80
2022-10-02T04:27:54.162Z,59.80
2022-10-02T04:30:21.095Z,59.80
2022-10-02T04:32:47.736Z,59.80
2022-10-02T04:35:20.482Z,59.80
2022-10-02T04:37:55.986Z,59.80
2022-10-02T04:40:40.819Z,59.80
2022-10-02T04:43:26.137Z,59.80
2022-10-02T04:45:55.761Z,59.80
2022-10-02T04:48:34.276Z,59.90
2022-10-02T04:51:04.027Z,59.80
2022-10-02T04:53:33.560Z,59.80
2022-10-02T04:56:00.063Z,59.90
2022-10-02T04:58:46.397Z,59.90
2022-10-02T05:01:31.686Z,59.80
2022-10-02T05:04:01.939Z,59.80
2022-10-02T05:06:36.529Z,59.80
2022-10-02T05:09:09.351Z,59.80
2022-10-02T05:11:45.485Z,59.80
2022-10-02T05:14:14.831Z,59.80
2022-10-02T05:16:58.147Z,59.80
2022-10-02T05:19:43.551Z,59.80
2022-10-02T05:22:26.820Z,59.80
2022-10-02T05:25:00.544Z,59.80
2022-10-02T05:27:38.992Z,59.90
2022-10-02T05:30:07.536Z,59.80
2022-10-02T05:32:51.608Z,59.80
2022-10-02T05:35:33.161Z,59.80
2022-10-02T05:38:32.064Z,59.80
2022-10-02T05:41:11.122Z,59.80
2022-10-02T05:44:13.098Z,59.80
2022-10-02T05:46:41.994Z,59.80
2022-10-02T05:49:14.118Z,59.80
2022-10-02T05:51:59.588Z,59.80
2022-10-02T05:54:31.992Z,59.80
2022-10-02T05:57:03.132Z,59.80
2022-10-02T05:59:36.171Z,59.80
2022-10-02T06:02:04.706Z,59.90
2022-10-02T06:04:34.722Z,59.90
2022-10-02T06:07:06.652Z,59.90
2022-10-02T06:09:35.214Z,59.80
2022-10-02T06:12:04.776Z,59.90
2022-10-02T06:14:47.351Z,59.80
2022-10-02T06:17:26.947Z,59.80
2022-10-02T06:20:05.426Z,59.80
2022-10-02T06:22:39.624Z,59.80
2022-10-02T06:25:13.921Z,59.90
2022-10-02T06:28:07.483Z,59.90
2022-10-02T06:30:37.098Z,59.80
2022-10-02T06:33:07.324Z,59.90
2022-10-02T06:35:52.225Z,59.80
2022-10-02T06:38:30.955Z,59.80
2022-10-02T06:40:57.431Z,59.90
2022-10-02T06:43:46.932Z,59.90
2022-10-02T06:46:27.020Z,59.80
2022-10-02T06:49:00.227Z,59.80
2022-10-02T06:51:45.242Z,59.90
2022-10-02T06:54:19.234Z,59.80
2022-10-02T06:56:53.415Z,59.90
2022-10-02T06:59:28.044Z,59.90
2022-10-02T07:02:08.306Z,59.90
2022-10-02T07:04:42.079Z,59.90
2022-10-02T07:07:08.558Z,59.90
2022-10-02T07:09:53.457Z,59.90
2022-10-02T07:12:32.114Z,59.80
2022-10-02T07:15:10.307Z,59.80
2022-10-02T07:17:39.870Z,59.90
2022-10-02T07:20:15.675Z,59.90
2022-10-02T07:23:01.548Z,59.90
2022-10-02T07:25:46.932Z,59.90
2022-10-02T07:28:17.524Z,59.90
2022-10-02T07:30:59.161Z,59.80
2022-10-02T07:33:47.027Z,59.80
2022-10-02T07:36:17.439Z,59.90
2022-10-02T07:39:02.555Z,59.90
2022-10-02T07:41:29.023Z,59.90
2022-10-02T07:44:27.988Z,59.90
2022-10-02T07:46:54.725Z,59.90
2022-10-02T07:49:24.388Z,59.90
2022-10-02T07:51:57.955Z,59.90
2022-10-02T07:54:52.343Z,59.90
2022-10-02T07:57:37.510Z,59.90
2022-10-02T08:00:06.207Z,59.90
2022-10-02T08:02:47.358Z,59.90
2022-10-02T08:05:17.163Z,59.90
2022-10-02T08:07:45.242Z,59.90
2022-10-02T08:10:14.906Z,59.90
2022-10-02T08:12:45.719Z,59.90
2022-10-02T08:15:15.670Z,59.90
2022-10-02T08:17:42.142Z,59.90
2022-10-02T08:20:17.467Z,59.90
2022-10-02T08:22:46.159Z,59.90
2022-10-02T08:25:12.621Z,59.90
2022-10-02T08:28:17.985Z,59.90
2022-10-02T08:30:44.579Z,59.90
2022-10-02T08:33:15.539Z,59.90
2022-10-02T08:35:49.112Z,59.90
2022-10-02T08:38:15.579Z,59.90
2022-10-02T08:40:54.012Z,59.90
2022-10-02T08:43:53.757Z,59.90
2022-10-02T08:46:39.186Z,59.90
2022-10-02T08:49:24.758Z,59.90
2022-10-02T08:52:06.671Z,59.90
2022-10-02T08:55:09.518Z,59.90
2022-10-02T08:57:52.202Z,59.90
2022-10-02T09:00:24.531Z,59.90
2022-10-02T09:03:09.849Z,59.90
2022-10-02T09:05:51.939Z,59.90
2022-10-02T09:08:18.411Z,60.00
2022-10-02T09:11:01.451Z,59.90
2022-10-02T09:13:46.378Z,60.00
2022-10-02T09:16:17.441Z,60.00
2022-10-02T09:18:43.982Z,60.00
2022-10-02T09:21:16.252Z,59.90
2022-10-02T09:23:52.639Z,59.90
2022-10-02T09:26:21.921Z,59.90
2022-10-02T09:29:07.453Z,59.90
2022-10-02T09:31:45.414Z,59.90
2022-10-02T09:34:21.241Z,59.90
2022-10-02T09:37:08.351Z,59.90
2022-10-02T09:39:52.188Z,59.90
2022-10-02T09:42:30.705Z,59.90
2022-10-02T09:45:01.354Z,59.90
2022-10-02T09:47:36.920Z,59.90
2022-10-02T09:50:19.926Z,59.90
2022-10-02T09:52:46.408Z,60.00
2022-10-02T09:55:36.573Z,59.90
2022-10-02T09:58:21.001Z,59.90
2022-10-02T10:00:59.887Z,59.90
2022-10-02T10:03:36.273Z,60.00
2022-10-02T10:06:28.316Z,59.90
2022-10-02T10:08:54.824Z,59.90
2022-10-02T10:11:40.145Z,59.90
2022-10-02T10:14:09.721Z,59.90
2022-10-02T10:16:54.948Z,59.90
2022-10-02T10:19:48.053Z,59.90
2022-10-02T10:22:38.775Z,59.90
2022-10-02T10:25:05.278Z,59.90
2022-10-02T10:27:42.980Z,59.90
2022-10-02T10:30:17.281Z,60.00
2022-10-02T10:32:43.820Z,59.90
2022-10-02T10:35:28.732Z,60.00
2022-10-02T10:38:15.519Z,59.90
2022-10-02T10:40:47.880Z,59.90
2022-10-02T10:43:20.510Z,59.90
2022-10-02T10:46:07.916Z,59.90
2022-10-02T10:48:37.751Z,60.00
2022-10-02T10:51:24.570Z,60.00
2022-10-02T10:54:11.298Z,59.90
2022-10-02T10:56:42.603Z,59.90
2022-10-02T10:59:23.042Z,59.90
2022-10-02T11:02:06.574Z,60.00
2022-10-02T11:04:42.202Z,60.00
2022-10-02T11:07:23.707Z,59.90
2022-10-02T11:09:50.169Z,60.00
2022-10-02T11:12:39.050Z,60.00
2022-10-02T11:15:08.564Z,60.00
2022-10-02T11:17:54.063Z,60.00
2022-10-02T11:20:20.614Z,60.00
2022-10-02T11:22:56.254Z,60.00
2022-10-02T11:25:22.777Z,60.00
2022-10-02T11:27:49.284Z,60.00
2022-10-02T11:30:21.884Z,60.00
2022-10-02T11:32:58.642Z,60.00
2022-10-02T11:35:48.933Z,59.90
2022-10-02T11:38:42.203Z,60.00
2022-10-02T11:41:14.610Z,60.10
2022-10-02T11:43:44.102Z,60.00
2022-10-02T11:46:28.195Z,60.00
2022-10-02T11:48:57.555Z,60.00
2022-10-02T11:51:46.104Z,60.00
2022-10-02T11:54:45.924Z,60.00
2022-10-02T11:57:23.366Z,60.00
2022-10-02T11:59:52.991Z,60.00
2022-10-02T12:02:25.970Z,60.00
2022-10-02T12:04:57.171Z,60.00
2022-10-02T12:07:42.541Z,60.00
2022-10-02T12:10:12.044Z,60.00
2022-10-02T12:12:51.470Z,60.00
2022-10-02T12:15:30.440Z,60.00
2022-10-02T12:18:32.357Z,60.00
2022-10-02T12:21:42.737Z,60.00
2022-10-02T12:24:46.304Z,60.00
2022-10-02T12:27:15.815Z,60.00
2022-10-02T12:29:49.454Z,60.30
2022-10-02T12:32:23.091Z,60.00
2022-10-02T12:34:49.600Z,60.00
2022-10-02T12:37:28.472Z,60.00
2022-10-02T12:40:04.170Z,60.70
2022-10-02T12:42:30.850Z,60.00
2022-10-02T12:45:28.155Z,59.90
2022-10-02T12:48:04.427Z,60.00
2022-10-02T12:50:46.016Z,60.00
2022-10-02T12:53:18.678Z,60.00
2022-10-02T12:55:56.303Z,60.00
2022-10-02T12:58:35.604Z,60.00
2022-10-02T13:01:31.587Z,60.00
2022-10-02T13:04:10.827Z,60.00
2022-10-02T13:06:37.538Z,60.00
2022-10-02T13:09:22.575Z,59.90
2022-10-02T13:11:51.429Z,60.00
2022-10-02T13:14:32.338Z,60.00
2022-10-02T13:17:09.741Z,60.00
2022-10-02T13:19:39.885Z,60.00
2022-10-02T13:22:16.036Z,60.00
2022-10-02T13:25:17.109Z,60.00
2022-10-02T13:28:09.512Z,60.00
2022-10-02T13:30:42.614Z,60.00
2022-10-02T13:33:47.527Z,60.00
2022-10-02T13:36:35.281Z,60.00
2022-10-02T13:39:22.272Z,60.00
2022-10-02T13:41:54.512Z,60.00
2022-10-02T13:44:27.623Z,60.00
2022-10-02T13:46:57.140Z,60.00
2022-10-02T13:49:41.455Z,60.00
2022-10-02T13:52:10.765Z,60.00
2022-10-02T13:54:41.310Z,60.00
2022-10-02T13:57:10.855Z,60.00
2022-10-02T13:59:49.754Z,60.00
2022-10-02T14:02:33.407Z,60.00
2022-10-02T14:05:11.036Z,60.00
2022-10-02T14:07:43.571Z,60.00
2022-10-02T14:10:17.001Z,60.00
2022-10-02T14:13:02.950Z,60.00
2022-10-02T14:15:31.583Z,60.00
2022-10-02T14:17:58.102Z,60.00
2022-10-02T14:20:30.850Z,60.00
2022-10-02T14:23:04.844Z,60.00
2022-10-02T14:25:31.334Z,60.00
2022-10-02T14:28:12.384Z,60.10
2022-10-02T14:30:38.912Z,60.10
2022-10-02T14:33:23.814Z,60.10
2022-10-02T14:35:50.309Z,60.10
2022-10-02T14:38:16.846Z,60.10
2022-10-02T14:40:51.647Z,60.00
2022-10-02T14:43:24.327Z,60.10
2022-10-02T14:45:51.848Z,60.10
2022-10-02T14:48:37.159Z,60.10
2022-10-02T14:51:11.168Z,60.00
2022-10-02T14:53:56.599Z,60.10
2022-10-02T14:56:41.929Z,60.10
2022-10-02T14:59:09.780Z,60.10
2022-10-02T15:01:54.927Z,60.00
2022-10-02T15:04:30.185Z,60.00
2022-10-02T15:06:59.961Z,60.00
2022-10-02T15:09:33.092Z,60.00
2022-10-02T15:12:06.244Z,60.10
2022-10-02T15:14:35.734Z,60.10
2022-10-02T15:17:24.094Z,60.10
2022-10-02T15:20:03.870Z,60.10
2022-10-02T15:22:46.298Z,60.10
2022-10-02T15:25:17.984Z,60.10
2022-10-02T15:27:47.109Z,60.10
2022-10-02T15:30:15.114Z,60.00
2022-10-02T15:32:47.692Z,60.00
2022-10-02T15:35:20.307Z,60.00
2022-10-02T15:38:05.673Z,60.00
2022-10-02T15:40:32.152Z,60.00
2022-10-02T15:43:12.020Z,60.10
2022-10-02T15:45:44.125Z,60.10
2022-10-02T15:48:22.993Z,60.10
2022-10-02T15:50:57.022Z,60.10
2022-10-02T15:53:38.583Z,60.00
2022-10-02T15:56:05.096Z,60.10
2022-10-02T15:58:52.788Z,60.00
2022-10-02T16:01:40.307Z,60.00
2022-10-02T16:04:24.943Z,60.00
2022-10-02T16:07:09.635Z,60.00
2022-10-02T16:09:49.795Z,60.10
2022-10-02T16:12:31.517Z,60.00
2022-10-02T16:15:02.811Z,60.10
2022-10-02T16:17:41.983Z,60.10
2022-10-02T16:20:27.133Z,60.10
2022-10-02T16:23:12.537Z,60.00
2022-10-02T16:25:45.133Z,60.00
2022-10-02T16:28:11.662Z,60.10
2022-10-02T16:30:58.711Z,60.10
2022-10-02T16:33:51.015Z,60.10
2022-10-02T16:36:30.041Z,60.10
2022-10-02T16:39:12.184Z,60.10
2022-10-02T16:41:59.418Z,60.00
2022-10-02T16:44:32.031Z,60.10
2022-10-02T16:47:07.408Z,60.10
2022-10-02T16:49:48.562Z,60.00
2022-10-02T16:52:34.098Z,60.10
2022-10-02T16:55:05.335Z,60.10
2022-10-02T16:57:34.720Z,60.10
2022-10-02T17:00:04.215Z,60.10
2022-10-02T17:02:36.803Z,60.10
2022-10-02T17:05:21.578Z,60.10
2022-10-02T17:08:03.432Z,60.10
2022-10-02T17:10:33.530Z,60.10
2022-10-02T17:13:09.152Z,60.10
2022-10-02T17:15:42.952Z,60.10
2022-10-02T17:18:13.209Z,60.10
2022-10-02T17:20:42.687Z,60.10
2022-10-02T17:23:27.993Z,60.10
2022-10-02T17:26:14.432Z,60.10
2022-10-02T17:28:51.623Z,60.10
2022-10-02T17:31:47.693Z,60.10
2022-10-02T17:34:17.740Z,60.10
2022-10-02T17:36:50.249Z,60.00
2022-10-02T17:39:28.690Z,60.10
2022-10-02T17:42:04.920Z,60.10
2022-10-02T17:44:35.165Z,60.10
2022-10-02T17:47:13.731Z,60.10
2022-10-02T17:49:58.811Z,60.10
2022-10-02T17:53:02.362Z,60.10
2022-10-02T17:55:54.901Z,60.10
2022-10-02T17:58:24.150Z,60.00
2022-10-02T18:00:56.971Z,60.00
2022-10-02T18:03:40.935Z,60.00
2022-10-02T18:06:11.136Z,60.10
2022-10-02T18:08:56.594Z,60.00
2022-10-02T18:11:34.439Z,60.00
2022-10-02T18:14:13.740Z,60.10
2022-10-02T18:16:47.687Z,60.00
2022-10-02T18:19:14.817Z,60.10
2022-10-02T18:21:41.295Z,60.10
2022-10-02T18:24:28.469Z,60.10
2022-10-02T18:27:04.118Z,60.10
2022-10-02T18:29:39.844Z,60.00
2022-10-02T18:32:27.078Z,60.00
2022-10-02T18:35:03.724Z,60.00
2022-10-02T18:37:54.542Z,60.10
2022-10-02T18:40:27.183Z,60.10
2022-10-02T18:43:02.199Z,60.10
2022-10-02T18:45:29.396Z,60.10
2022-10-02T18:48:07.093Z,60.10
2022-10-02T18:50:44.058Z,60.10
2022-10-02T18:53:22.927Z,60.10
2022-10-02T18:56:02.835Z,60.10
2022-10-02T18:58:36.871Z,60.10
2022-10-02T19:01:08.909Z,60.10
2022-10-02T19:03:35.452Z,60.00
2022-10-02T19:06:09.223Z,60.00
2022-10-02T19:08:54.862Z,60.10
2022-10-02T19:11:26.820Z,60.10
2022-10-02T19:13:53.534Z,60.10
2022-10-02T19:16:25.424Z,60.10
2022-10-02T19:19:21.453Z,60.10
2022-10-02T19:21:48.287Z,60.10
2022-10-02T19:24:19.867Z,60.10
2022-10-02T19:26:50.725Z,60.10
2022-10-02T19:29:32.496Z,60.10
2022-10-02T19:32:00.777Z,60.10
2022-10-02T19:34:28.842Z,60.10
2022-10-02T19:36:57.482Z,60.10
2022-10-02T19:39:26.416Z,60.10
2022-10-02T19:41:55.218Z,60.10
2022-10-02T19:44:44.882Z,60.10
2022-10-02T19:47:16.702Z,60.10
2022-10-02T19:49:46.531Z,60.10
2022-10-02T19:52:48.223Z,60.10
2022-10-02T19:55:21.418Z,60.10
2022-10-02T19:57:48.437Z,60.10
2022-10-02T20:00:16.679Z,60.10
2022-10-02T20:02:45.152Z,60.10
2022-10-02T20:05:18.127Z,60.10
2022-10-02T20:07:45.540Z,60.10
2022-10-02T20:10:17.159Z,60.10
2022-10-02T20:12:48.836Z,60.10
2022-10-02T20:15:55.899Z,60.10
2022-10-02T20:18:24.439Z,60.10
2022-10-02T20:20:53.048Z,60.10
2022-10-02T20:23:23.264Z,60.10
2022-10-02T20:25:52.548Z,60.10
2022-10-02T20:28:32.159Z,60.10
2022-10-02T20:31:01.853Z,60.10
2022-10-02T20:33:37.049Z,60.10
2022-10-02T20:36:12.723Z,60.10
2022-10-02T20:38:43.072Z,60.10
2022-10-02T20:41:18.415Z,60.10
2022-10-02T20:43:49.191Z,60.10
2022-10-02T20:46:21.762Z,60.10
2022-10-02T20:49:11.892Z,60.10
2022-10-02T20:51:56.939Z,60.10
2022-10-02T20:54:43.482Z,60.10
2022-10-02T20:57:15.848Z,60.10
2022-10-02T20:59:51.497Z,60.10
2022-10-02T21:02:24.255Z,60.10
2022-10-02T21:04:53.802Z,60.10
2022-10-02T21:07:20.264Z,60.10
2022-10-02T21:09:46.745Z,60.10
2022-10-02T21:12:37.742Z,60.10
2022-10-02T21:15:08.203Z,60.90
2022-10-02T21:17:35.172Z,60.10
2022-10-02T21:20:46.115Z,60.10
2022-10-02T21:23:32.806Z,60.10
2022-10-02T21:25:59.301Z,60.20
2022-10-02T21:28:41.072Z,60.10
2022-10-02T21:31:26.659Z,60.10
2022-10-02T21:33:58.783Z,60.10
2022-10-02T21:36:33.828Z,60.20
2022-10-02T21:39:18.985Z,60.10
2022-10-02T21:41:54.784Z,60.10
2022-10-02T21:44:24.261Z,60.10
2022-10-02T21:47:00.272Z,60.10
2022-10-02T21:49:45.268Z,60.10
2022-10-02T21:52:30.580Z,60.10
2022-10-02T21:55:06.171Z,60.10
2022-10-02T21:57:51.595Z,60.10
2022-10-02T22:00:21.760Z,60.10
2022-10-02T22:03:12.213Z,60.10
2022-10-02T22:05:38.744Z,60.10
2022-10-02T22:08:23.782Z,60.10
2022-10-02T22:10:50.570Z,60.10
2022-10-02T22:13:27.682Z,60.10
2022-10-02T22:16:13.436Z,60.10
2022-10-02T22:18:43.524Z,60.10
2022-10-02T22:21:12.885Z,60.10
2022-10-02T22:23:39.348Z,60.10
2022-10-02T22:26:18.651Z,60.10
2022-10-02T22:28:46.982Z,60.10
2022-10-02T22:31:13.538Z,60.10
2022-10-02T22:33:47.027Z,60.10
2022-10-02T22:36:29.798Z,60.10
2022-10-02T22:39:19.376Z,60.10
2022-10-02T22:41:56.999Z,60.10
2022-10-02T22:44:26.484Z,60.10
2022-10-02T22:46:57.480Z,60.10
2022-10-02T22:49:43.020Z,60.10
2022-10-02T22:52:21.900Z,60.10
2022-10-02T22:54:57.613Z,60.10
2022-10-02T22:57:37.981Z,60.10
2022-10-02T23:00:12.678Z,60.10
2022-10-02T23:02:45.188Z,60.20
2022-10-02T23:05:14.537Z,60.20
2022-10-02T23:08:07.053Z,60.20
2022-10-02T23:10:38.438Z,60.20
2022-10-02T23:13:11.270Z,60.20
2022-10-02T23:15:52.856Z,60.20
2022-10-02T23:18:24.962Z,60.20
2022-10-02T23:21:06.798Z,60.10
2022-10-02T23:23:36.855Z,60.10
2022-10-02T23:26:07.040Z,60.10
2022-10-02T23:28:51.939Z,60.10
2022-10-02T23:31:30.128Z,60.20
2022-10-02T23:34:02.546Z,60.10
2022-10-02T23:36:38.300Z,60.10
2022-10-02T23:39:13.766Z,60.10
2022-10-02T23:41:47.084Z,60.10
2022-10-02T23:44:19.880Z,60.10
2022-10-02T23:47:06.652Z,60.10
2022-10-02T23:49:37.487Z,60.10
2022-10-02T23:52:17.320Z,60.10
2022-10-02T23:55:02.536Z,60.10
2022-10-02T23:57:32.967Z,60.10
